createdAt,value
2017-05-14T00:00:22.516Z,20.8
2017-05-14T00:01:32.783Z,20.77
2017-05-14T00:02:43.050Z,20.73
2017-05-14T00:03:53.314Z,20.72
2017-05-14T00:05:03.268Z,20.77
2017-05-14T00:06:12.585Z,20.77
2017-05-14T00:07:22.533Z,20.76
2017-05-14T00:08:32.478Z,20.77
2017-05-14T00:09:42.745Z,20.77
2017-05-14T00:10:52.384Z,20.77
2017-05-14T00:12:02.336Z,20.74
2017-05-14T00:13:12.282Z,20.74
2017-05-14T00:14:22.551Z,20.77
2017-05-14T00:15:32.188Z,20.74
2017-05-14T00:16:42.451Z,20.79
2017-05-14T00:17:52.405Z,20.76
2017-05-14T00:19:02.672Z,20.74
2017-05-14T00:20:12.633Z,20.73
2017-05-14T00:21:22.589Z,20.77
2017-05-14T00:22:32.550Z,20.73
2017-05-14T00:23:42.191Z,20.79
2017-05-14T00:24:51.830Z,20.76
2017-05-14T00:26:02.095Z,20.72
2017-05-14T00:27:12.058Z,20.73
2017-05-14T00:28:22.101Z,20.66
2017-05-14T00:29:32.060Z,20.74
2017-05-14T00:30:42.006Z,20.77
2017-05-14T00:31:52.268Z,20.7
2017-05-14T00:33:02.527Z,20.74
2017-05-14T00:34:12.165Z,20.79
2017-05-14T00:35:21.801Z,20.73
2017-05-14T00:36:31.759Z,20.74
2017-05-14T00:37:42.024Z,20.79
2017-05-14T00:38:52.288Z,20.76
2017-05-14T00:40:02.557Z,20.7
2017-05-14T00:41:12.510Z,20.72
2017-05-14T00:42:22.146Z,20.73
2017-05-14T00:43:32.416Z,20.74
2017-05-14T00:44:42.373Z,20.73
2017-05-14T00:45:52.637Z,20.67
2017-05-14T00:47:02.592Z,20.73
2017-05-14T00:48:12.538Z,20.66
2017-05-14T00:49:22.811Z,20.76
2017-05-14T00:50:33.076Z,20.7
2017-05-14T00:51:42.718Z,20.76
2017-05-14T00:52:52.664Z,20.66
2017-05-14T00:54:02.299Z,20.77
2017-05-14T00:55:11.936Z,20.67
2017-05-14T00:56:21.578Z,20.69
2017-05-14T00:57:31.531Z,20.72
2017-05-14T00:58:41.487Z,20.72
2017-05-14T00:59:51.122Z,20.74
2017-05-14T01:01:01.387Z,20.76
2017-05-14T01:02:11.027Z,20.73
2017-05-14T01:03:21.301Z,20.77
2017-05-14T01:04:31.563Z,20.7
2017-05-14T01:05:41.521Z,20.74
2017-05-14T01:06:51.484Z,20.72
2017-05-14T01:08:01.433Z,20.7
2017-05-14T01:09:11.714Z,20.72
2017-05-14T01:10:21.977Z,20.7
2017-05-14T01:11:32.242Z,20.72
2017-05-14T01:12:41.878Z,20.73
2017-05-14T01:13:51.834Z,20.76
2017-05-14T01:15:02.100Z,20.74
2017-05-14T01:16:12.366Z,20.72
2017-05-14T01:17:22.362Z,20.64
2017-05-14T01:18:32.625Z,20.64
2017-05-14T01:19:42.894Z,20.73
2017-05-14T01:20:53.161Z,20.72
2017-05-14T01:22:02.797Z,20.72
2017-05-14T01:23:12.756Z,20.7
2017-05-14T01:24:23.026Z,20.72
2017-05-14T01:25:32.975Z,20.66
2017-05-14T01:26:42.619Z,20.61
2017-05-14T01:27:52.896Z,20.59
2017-05-14T01:29:02.860Z,20.72
2017-05-14T01:30:12.811Z,20.64
2017-05-14T01:31:21.820Z,20.7
2017-05-14T01:32:32.084Z,20.61
2017-05-14T01:33:42.404Z,20.72
2017-05-14T01:34:52.674Z,20.72
2017-05-14T01:36:02.939Z,20.67
2017-05-14T01:37:12.569Z,20.66
2017-05-14T01:38:22.521Z,20.62
2017-05-14T01:39:32.783Z,20.74
2017-05-14T01:40:43.054Z,20.62
2017-05-14T01:41:53.004Z,20.7
2017-05-14T01:43:03.266Z,20.67
2017-05-14T01:44:13.225Z,20.7
2017-05-14T01:45:23.492Z,20.7
2017-05-14T01:46:33.456Z,20.57
2017-05-14T01:47:43.729Z,20.64
2017-05-14T01:48:53.677Z,20.58
2017-05-14T01:50:03.632Z,20.69
2017-05-14T01:51:13.902Z,20.64
2017-05-14T01:52:23.851Z,20.62
2017-05-14T01:53:34.125Z,20.64
2017-05-14T01:54:44.404Z,20.59
2017-05-14T01:55:54.045Z,20.66
2017-05-14T01:57:03.684Z,20.73
2017-05-14T01:58:12.700Z,20.67
2017-05-14T01:59:22.650Z,20.69
2017-05-14T02:00:32.599Z,20.74
2017-05-14T02:01:42.869Z,20.67
2017-05-14T02:02:53.137Z,20.64
2017-05-14T02:04:03.397Z,20.62
2017-05-14T02:05:13.029Z,20.64
2017-05-14T02:06:23.300Z,20.66
2017-05-14T02:07:33.264Z,20.69
2017-05-14T02:08:43.215Z,20.66
2017-05-14T02:09:53.174Z,20.54
2017-05-14T02:11:03.434Z,20.61
2017-05-14T02:12:13.396Z,20.61
2017-05-14T02:13:23.661Z,20.57
2017-05-14T02:14:33.619Z,20.59
2017-05-14T02:15:43.577Z,20.62
2017-05-14T02:16:53.214Z,20.62
2017-05-14T02:18:03.165Z,20.66
2017-05-14T02:19:12.848Z,20.64
2017-05-14T02:20:23.126Z,20.57
2017-05-14T02:21:33.380Z,20.66
2017-05-14T02:22:43.655Z,20.61
2017-05-14T02:23:53.920Z,20.66
2017-05-14T02:25:03.873Z,20.59
2017-05-14T02:26:14.140Z,20.51
2017-05-14T02:27:24.416Z,20.59
2017-05-14T02:28:34.378Z,20.58
2017-05-14T02:29:44.337Z,20.61
2017-05-14T02:30:54.607Z,20.59
2017-05-14T02:32:04.875Z,20.61
2017-05-14T02:33:14.830Z,20.52
2017-05-14T02:34:24.465Z,20.62
2017-05-14T02:35:34.422Z,20.58
2017-05-14T02:36:44.693Z,20.59
2017-05-14T02:37:54.650Z,20.5
2017-05-14T02:39:04.651Z,20.61
2017-05-14T02:40:14.600Z,20.66
2017-05-14T02:41:24.866Z,20.57
2017-05-14T02:42:34.821Z,20.61
2017-05-14T02:43:45.091Z,20.59
2017-05-14T02:44:55.058Z,20.59
2017-05-14T02:46:05.329Z,20.61
2017-05-14T02:47:15.278Z,20.61
2017-05-14T02:48:24.596Z,20.61
2017-05-14T02:49:34.864Z,20.59
2017-05-14T02:50:44.816Z,20.57
2017-05-14T02:51:54.452Z,20.54
2017-05-14T02:53:04.717Z,20.55
2017-05-14T02:54:14.985Z,20.52
2017-05-14T02:55:24.677Z,20.5
2017-05-14T02:56:34.947Z,20.51
2017-05-14T02:57:45.217Z,20.48
2017-05-14T02:58:55.200Z,20.52
2017-05-14T03:00:05.464Z,20.52
2017-05-14T03:01:15.423Z,20.57
2017-05-14T03:02:25.689Z,20.48
2017-05-14T03:03:35.957Z,20.47
2017-05-14T03:04:46.229Z,20.47
2017-05-14T03:05:56.179Z,20.52
2017-05-14T03:07:06.132Z,20.43
2017-05-14T03:08:15.486Z,20.51
2017-05-14T03:09:25.756Z,20.43
2017-05-14T03:10:35.712Z,20.55
2017-05-14T03:11:45.981Z,20.55
2017-05-14T03:12:56.252Z,20.5
2017-05-14T03:14:06.579Z,20.5
2017-05-14T03:15:16.213Z,20.48
2017-05-14T03:16:26.478Z,20.5
2017-05-14T03:17:36.430Z,20.48
2017-05-14T03:18:46.702Z,20.54
2017-05-14T03:19:56.970Z,20.57
2017-05-14T03:21:06.918Z,20.5
2017-05-14T03:22:17.198Z,20.51
2017-05-14T03:23:27.463Z,20.54
2017-05-14T03:24:37.415Z,20.47
2017-05-14T03:25:47.418Z,20.47
2017-05-14T03:26:57.373Z,20.5
2017-05-14T03:28:07.328Z,20.48
2017-05-14T03:29:16.967Z,20.48
2017-05-14T03:30:27.245Z,20.5
2017-05-14T03:31:37.506Z,20.51
2017-05-14T03:32:47.766Z,20.5
2017-05-14T03:33:57.724Z,20.51
2017-05-14T03:35:07.363Z,20.52
2017-05-14T03:36:17.624Z,20.47
2017-05-14T03:37:27.575Z,20.5
2017-05-14T03:38:37.843Z,20.52
2017-05-14T03:39:48.113Z,20.51
2017-05-14T03:40:58.070Z,20.43
2017-05-14T03:42:08.022Z,20.48
2017-05-14T03:43:17.979Z,20.5
2017-05-14T03:44:27.941Z,20.47
2017-05-14T03:45:38.202Z,20.5
2017-05-14T03:46:48.158Z,20.51
2017-05-14T03:47:58.419Z,20.51
2017-05-14T03:49:08.370Z,20.51
2017-05-14T03:50:18.330Z,20.48
2017-05-14T03:51:28.595Z,20.51
2017-05-14T03:52:38.857Z,20.5
2017-05-14T03:53:48.820Z,20.48
2017-05-14T03:54:58.464Z,20.41
2017-05-14T03:56:08.414Z,20.5
2017-05-14T03:57:18.364Z,20.42
2017-05-14T03:58:28.672Z,20.43
2017-05-14T03:59:38.627Z,20.47
2017-05-14T04:00:48.582Z,20.47
2017-05-14T04:01:58.848Z,20.51
2017-05-14T04:03:09.109Z,20.47
2017-05-14T04:04:18.747Z,20.51
2017-05-14T04:05:28.698Z,20.48
2017-05-14T04:06:38.660Z,20.52
2017-05-14T04:07:48.611Z,20.5
2017-05-14T04:08:58.564Z,20.48
2017-05-14T04:10:08.521Z,20.48
2017-05-14T04:11:18.477Z,20.47
2017-05-14T04:12:28.435Z,20.54
2017-05-14T04:13:38.392Z,20.48
2017-05-14T04:14:48.353Z,20.5
2017-05-14T04:15:58.622Z,20.43
2017-05-14T04:17:08.569Z,20.43
2017-05-14T04:18:18.523Z,20.51
2017-05-14T04:19:28.796Z,20.48
2017-05-14T04:20:39.060Z,20.54
2017-05-14T04:21:49.323Z,20.48
2017-05-14T04:22:59.583Z,20.5
2017-05-14T04:24:09.223Z,20.48
2017-05-14T04:25:19.493Z,20.48
2017-05-14T04:26:29.441Z,20.51
2017-05-14T04:27:39.719Z,20.47
2017-05-14T04:28:49.676Z,20.43
2017-05-14T04:29:59.632Z,20.52
2017-05-14T04:31:09.582Z,20.48
2017-05-14T04:32:19.852Z,20.47
2017-05-14T04:33:30.117Z,20.52
2017-05-14T04:34:40.421Z,20.51
2017-05-14T04:35:50.688Z,20.51
2017-05-14T04:37:00.950Z,20.42
2017-05-14T04:38:11.228Z,20.47
2017-05-14T04:39:21.181Z,20.43
2017-05-14T04:40:31.146Z,20.48
2017-05-14T04:41:41.409Z,20.42
2017-05-14T04:42:51.051Z,20.51
2017-05-14T04:44:01.320Z,20.51
2017-05-14T04:45:11.590Z,20.43
2017-05-14T04:46:21.223Z,20.52
2017-05-14T04:47:31.174Z,20.41
2017-05-14T04:48:40.516Z,20.43
2017-05-14T04:49:50.782Z,20.51
2017-05-14T04:51:00.733Z,20.51
2017-05-14T04:52:10.692Z,20.52
2017-05-14T04:53:20.963Z,20.51
2017-05-14T04:54:31.222Z,20.54
2017-05-14T04:55:41.178Z,20.43
2017-05-14T04:56:51.442Z,20.52
2017-05-14T04:58:01.073Z,20.51
2017-05-14T04:59:11.034Z,20.51
2017-05-14T05:00:21.009Z,20.54
2017-05-14T05:01:31.269Z,20.51
2017-05-14T05:02:41.551Z,20.47
2017-05-14T05:03:51.826Z,20.5
2017-05-14T05:05:02.103Z,20.48
2017-05-14T05:06:12.365Z,20.55
2017-05-14T05:07:22.629Z,20.57
2017-05-14T05:08:32.588Z,20.59
2017-05-14T05:09:42.566Z,20.61
2017-05-14T05:10:52.522Z,20.66
2017-05-14T05:12:02.784Z,20.61
2017-05-14T05:13:13.051Z,20.59
2017-05-14T05:14:23.005Z,20.59
2017-05-14T05:15:33.262Z,20.7
2017-05-14T05:16:43.214Z,20.73
2017-05-14T05:17:53.163Z,20.69
2017-05-14T05:19:03.427Z,20.64
2017-05-14T05:20:13.697Z,20.72
2017-05-14T05:21:23.643Z,20.62
2017-05-14T05:22:33.906Z,20.66
2017-05-14T05:23:44.168Z,20.64
2017-05-14T05:24:54.157Z,20.62
2017-05-14T05:26:04.421Z,20.62
2017-05-14T05:27:14.374Z,20.58
2017-05-14T05:28:24.693Z,20.62
2017-05-14T05:29:34.965Z,20.62
2017-05-14T05:30:45.231Z,20.58
2017-05-14T05:31:55.187Z,20.64
2017-05-14T05:33:05.494Z,20.57
2017-05-14T05:34:15.770Z,20.7
2017-05-14T05:35:25.452Z,20.59
2017-05-14T05:36:35.402Z,20.59
2017-05-14T05:37:45.357Z,20.59
2017-05-14T05:38:55.635Z,20.62
2017-05-14T05:40:05.899Z,20.67
2017-05-14T05:41:15.854Z,20.67
2017-05-14T05:42:26.118Z,20.69
2017-05-14T05:43:36.132Z,20.59
2017-05-14T05:44:45.459Z,20.72
2017-05-14T05:45:55.414Z,20.76
2017-05-14T05:47:05.722Z,20.72
2017-05-14T05:48:16.010Z,20.67
2017-05-14T05:49:26.277Z,20.74
2017-05-14T05:50:36.222Z,20.7
2017-05-14T05:51:46.491Z,20.74
2017-05-14T05:52:57.193Z,20.72
2017-05-14T05:54:06.997Z,20.76
2017-05-14T05:55:16.958Z,20.73
2017-05-14T05:56:27.224Z,20.77
2017-05-14T05:57:37.489Z,20.73
2017-05-14T05:58:47.444Z,20.72
2017-05-14T05:59:57.784Z,20.73
2017-05-14T06:01:08.052Z,20.76
2017-05-14T06:02:17.692Z,20.72
2017-05-14T06:03:27.954Z,20.76
2017-05-14T06:04:37.911Z,20.73
2017-05-14T06:05:48.171Z,20.73
2017-05-14T06:06:58.114Z,20.74
2017-05-14T06:08:08.377Z,20.82
2017-05-14T06:09:18.643Z,20.72
2017-05-14T06:10:28.595Z,20.76
2017-05-14T06:11:38.549Z,20.73
2017-05-14T06:12:48.501Z,20.76
2017-05-14T06:13:58.134Z,20.67
2017-05-14T06:15:07.771Z,20.8
2017-05-14T06:16:18.034Z,20.79
2017-05-14T06:17:28.303Z,20.79
2017-05-14T06:18:38.249Z,20.76
2017-05-14T06:19:48.527Z,20.64
2017-05-14T06:20:58.482Z,20.73
2017-05-14T06:22:08.758Z,20.82
2017-05-14T06:23:18.394Z,20.74
2017-05-14T06:24:28.343Z,20.73
2017-05-14T06:25:38.295Z,20.76
2017-05-14T06:26:48.247Z,20.85
2017-05-14T06:27:57.895Z,20.76
2017-05-14T06:29:08.160Z,20.74
2017-05-14T06:30:18.424Z,20.84
2017-05-14T06:31:28.371Z,20.8
2017-05-14T06:32:38.322Z,20.87
2017-05-14T06:33:48.589Z,20.89
2017-05-14T06:34:58.539Z,20.89
2017-05-14T06:36:08.166Z,20.92
2017-05-14T06:37:18.113Z,20.97
2017-05-14T06:38:27.747Z,20.95
2017-05-14T06:39:37.695Z,20.91
2017-05-14T06:40:47.962Z,20.95
2017-05-14T06:41:58.228Z,20.94
2017-05-14T06:43:08.185Z,20.92
2017-05-14T06:44:18.450Z,21.04
2017-05-14T06:45:27.771Z,21.01
2017-05-14T06:46:37.096Z,21.09
2017-05-14T06:47:47.046Z,20.99
2017-05-14T06:48:57.318Z,20.92
2017-05-14T06:50:06.952Z,20.88
2017-05-14T06:51:16.908Z,20.91
2017-05-14T06:52:27.172Z,20.94
2017-05-14T06:53:37.439Z,20.94
2017-05-14T06:54:47.707Z,20.92
2017-05-14T06:55:57.973Z,20.97
2017-05-14T06:57:08.255Z,20.91
2017-05-14T06:58:18.524Z,20.95
2017-05-14T06:59:28.792Z,20.88
2017-05-14T07:00:38.745Z,20.88
2017-05-14T07:01:48.699Z,20.98
2017-05-14T07:02:58.960Z,21.01
2017-05-14T07:04:08.958Z,21.01
2017-05-14T07:05:19.221Z,21.12
2017-05-14T07:06:29.487Z,21.01
2017-05-14T07:07:39.593Z,21.1
2017-05-14T07:08:50.212Z,21.12
2017-05-14T07:10:00.480Z,21.07
2017-05-14T07:11:10.435Z,21.14
2017-05-14T07:12:20.694Z,21.13
2017-05-14T07:13:31.400Z,21.16
2017-05-14T07:14:41.788Z,21.27
2017-05-14T07:15:51.758Z,21.19
2017-05-14T07:17:02.025Z,21.21
2017-05-14T07:18:11.660Z,21.16
2017-05-14T07:19:21.334Z,21.19
2017-05-14T07:20:31.008Z,21.22
2017-05-14T07:21:41.273Z,21.25
2017-05-14T07:22:51.226Z,21.27
2017-05-14T07:24:00.862Z,21.19
2017-05-14T07:25:10.809Z,21.32
2017-05-14T07:26:20.762Z,21.25
2017-05-14T07:27:30.713Z,21.35
2017-05-14T07:28:40.345Z,21.42
2017-05-14T07:29:50.608Z,21.4
2017-05-14T07:31:00.878Z,21.43
2017-05-14T07:32:10.825Z,21.34
2017-05-14T07:33:20.774Z,21.37
2017-05-14T07:34:31.040Z,21.47
2017-05-14T07:35:40.678Z,21.58
2017-05-14T07:36:50.948Z,21.52
2017-05-14T07:38:00.900Z,21.38
2017-05-14T07:39:11.171Z,21.43
2017-05-14T07:40:20.805Z,21.5
2017-05-14T07:41:30.760Z,21.54
2017-05-14T07:42:40.714Z,21.46
2017-05-14T07:43:50.975Z,21.47
2017-05-14T07:45:01.284Z,21.28
2017-05-14T07:46:11.241Z,21.28
2017-05-14T07:47:21.506Z,21.28
2017-05-14T07:48:31.140Z,21.37
2017-05-14T07:49:41.089Z,21.32
2017-05-14T07:50:51.360Z,21.28
2017-05-14T07:52:01.636Z,21.28
2017-05-14T07:53:11.897Z,21.24
2017-05-14T07:54:21.856Z,21.25
2017-05-14T07:55:32.124Z,21.31
2017-05-14T07:56:42.074Z,21.25
2017-05-14T07:57:51.712Z,21.29
2017-05-14T07:59:01.676Z,21.25
2017-05-14T08:00:11.953Z,21.27
2017-05-14T08:01:21.909Z,21.24
2017-05-14T08:02:31.859Z,21.22
2017-05-14T08:03:41.853Z,21.22
2017-05-14T08:04:51.797Z,21.24
2017-05-14T08:06:01.434Z,21.27
2017-05-14T08:07:11.074Z,21.24
2017-05-14T08:08:21.027Z,21.22
2017-05-14T08:09:30.662Z,21.24
2017-05-14T08:10:40.616Z,21.27
2017-05-14T08:11:50.569Z,21.22
2017-05-14T08:13:00.831Z,21.22
2017-05-14T08:14:11.099Z,21.24
2017-05-14T08:15:20.741Z,21.25
2017-05-14T08:16:31.005Z,21.22
2017-05-14T08:17:40.957Z,21.24
2017-05-14T08:18:51.225Z,21.25
2017-05-14T08:20:01.486Z,21.24
2017-05-14T08:21:11.766Z,21.25
2017-05-14T08:22:22.038Z,21.29
2017-05-14T08:23:32.324Z,21.31
2017-05-14T08:24:42.589Z,21.21
2017-05-14T08:25:52.551Z,21.21
2017-05-14T08:27:02.814Z,21.24
2017-05-14T08:28:12.448Z,21.22
2017-05-14T08:29:22.712Z,21.27
2017-05-14T08:30:32.350Z,21.29
2017-05-14T08:31:41.674Z,21.27
2017-05-14T08:32:51.628Z,21.28
2017-05-14T08:34:01.892Z,21.28
2017-05-14T08:35:11.844Z,21.27
2017-05-14T08:36:21.484Z,21.29
2017-05-14T08:37:31.755Z,21.25
2017-05-14T08:38:42.029Z,21.24
2017-05-14T08:39:52.339Z,21.25
2017-05-14T08:41:02.605Z,21.22
2017-05-14T08:42:12.924Z,21.25
2017-05-14T08:43:22.552Z,21.28
2017-05-14T08:44:32.502Z,21.24
2017-05-14T08:45:42.479Z,21.21
2017-05-14T08:46:52.748Z,21.22
2017-05-14T08:48:03.010Z,21.25
2017-05-14T08:49:12.957Z,21.29
2017-05-14T08:50:22.597Z,21.25
2017-05-14T08:51:32.549Z,21.24
2017-05-14T08:52:42.507Z,21.25
2017-05-14T08:53:52.774Z,21.24
2017-05-14T08:55:03.037Z,21.28
2017-05-14T08:56:12.982Z,21.19
2017-05-14T08:57:22.936Z,21.28
2017-05-14T08:58:32.890Z,21.27
2017-05-14T08:59:42.523Z,21.17
2017-05-14T09:00:52.489Z,21.28
2017-05-14T09:02:02.760Z,21.14
2017-05-14T09:03:13.029Z,21.14
2017-05-14T09:04:23.311Z,21.17
2017-05-14T09:05:32.951Z,21.13
2017-05-14T09:06:42.276Z,21.24
2017-05-14T09:07:51.917Z,21.24
2017-05-14T09:09:02.188Z,21.37
2017-05-14T09:10:12.498Z,21.32
2017-05-14T09:11:22.763Z,21.21
2017-05-14T09:12:33.031Z,21.22
2017-05-14T09:13:42.980Z,21.34
2017-05-14T09:14:52.686Z,21.28
2017-05-14T09:16:02.953Z,21.27
2017-05-14T09:17:12.593Z,21.32
2017-05-14T09:18:22.858Z,21.24
2017-05-14T09:19:32.811Z,21.27
2017-05-14T09:20:43.077Z,21.31
2017-05-14T09:21:53.031Z,21.24
2017-05-14T09:23:02.990Z,21.34
2017-05-14T09:24:12.948Z,21.24
2017-05-14T09:25:23.215Z,21.24
2017-05-14T09:26:32.847Z,21.25
2017-05-14T09:27:43.158Z,21.34
2017-05-14T09:28:53.106Z,21.37
2017-05-14T09:30:03.058Z,21.34
2017-05-14T09:31:13.004Z,21.42
2017-05-14T09:32:23.271Z,21.37
2017-05-14T09:33:33.218Z,21.34
2017-05-14T09:34:43.164Z,21.32
2017-05-14T09:35:53.425Z,21.28
2017-05-14T09:37:03.690Z,21.22
2017-05-14T09:38:13.326Z,21.29
2017-05-14T09:39:23.590Z,21.28
2017-05-14T09:40:33.853Z,21.28
2017-05-14T09:41:43.806Z,21.24
2017-05-14T09:42:53.756Z,21.34
2017-05-14T09:44:04.017Z,21.32
2017-05-14T09:45:14.281Z,21.29
2017-05-14T09:46:24.233Z,21.25
2017-05-14T09:47:34.227Z,21.24
2017-05-14T09:48:43.548Z,21.25
2017-05-14T09:49:53.503Z,21.24
2017-05-14T09:51:03.455Z,21.21
2017-05-14T09:52:13.090Z,21.25
2017-05-14T09:53:23.359Z,21.27
2017-05-14T09:54:33.628Z,21.24
2017-05-14T09:55:43.885Z,21.25
2017-05-14T09:56:53.847Z,21.28
2017-05-14T09:58:03.809Z,21.25
2017-05-14T09:59:13.447Z,21.24
2017-05-14T10:00:23.399Z,21.28
2017-05-14T10:01:33.353Z,21.28
2017-05-14T10:02:43.610Z,21.27
2017-05-14T10:03:53.872Z,21.24
2017-05-14T10:05:03.826Z,21.22
2017-05-14T10:06:13.778Z,21.24
2017-05-14T10:07:23.421Z,21.25
2017-05-14T10:08:33.678Z,21.25
2017-05-14T10:09:43.943Z,21.28
2017-05-14T10:10:54.100Z,21.27
2017-05-14T10:12:04.377Z,21.29
2017-05-14T10:13:14.326Z,21.27
2017-05-14T10:14:24.278Z,21.19
2017-05-14T10:15:34.230Z,21.27
2017-05-14T10:16:44.210Z,21.35
2017-05-14T10:17:53.850Z,21.38
2017-05-14T10:19:04.122Z,21.32
2017-05-14T10:20:13.757Z,21.35
2017-05-14T10:21:24.035Z,21.27
2017-05-14T10:22:34.302Z,21.21
2017-05-14T10:23:44.258Z,21.25
2017-05-14T10:24:54.519Z,21.25
2017-05-14T10:26:04.474Z,21.31
2017-05-14T10:27:14.110Z,21.29
2017-05-14T10:28:24.065Z,21.31
2017-05-14T10:29:34.333Z,21.37
2017-05-14T10:30:44.602Z,21.46
2017-05-14T10:31:54.241Z,21.35
2017-05-14T10:33:04.192Z,21.46
2017-05-14T10:34:14.462Z,21.37
2017-05-14T10:35:24.725Z,21.43
2017-05-14T10:36:34.998Z,21.44
2017-05-14T10:37:44.951Z,21.37
2017-05-14T10:38:55.215Z,21.43
2017-05-14T10:40:05.489Z,21.46
2017-05-14T10:41:14.820Z,21.42
2017-05-14T10:42:25.085Z,21.44
2017-05-14T10:43:35.348Z,21.49
2017-05-14T10:44:45.304Z,21.56
2017-05-14T10:45:55.265Z,21.58
2017-05-14T10:47:05.529Z,21.52
2017-05-14T10:48:14.856Z,21.58
2017-05-14T10:49:25.122Z,21.56
2017-05-14T10:50:35.078Z,21.52
2017-05-14T10:51:45.346Z,21.44
2017-05-14T10:52:55.614Z,21.34
2017-05-14T10:54:05.576Z,21.4
2017-05-14T10:55:15.547Z,21.46
2017-05-14T10:56:25.504Z,21.38
2017-05-14T10:57:35.761Z,21.38
2017-05-14T10:58:46.029Z,21.35
2017-05-14T10:59:56.835Z,21.47
2017-05-14T11:01:07.210Z,21.43
2017-05-14T11:02:17.489Z,21.38
2017-05-14T11:03:27.481Z,21.37
2017-05-14T11:04:37.435Z,21.37
2017-05-14T11:05:47.099Z,21.35
2017-05-14T11:06:57.370Z,21.43
2017-05-14T11:08:07.638Z,21.43
2017-05-14T11:09:17.583Z,21.47
2017-05-14T11:10:27.853Z,21.4
2017-05-14T11:11:37.804Z,21.44
2017-05-14T11:12:48.093Z,21.46
2017-05-14T11:13:57.729Z,21.49
2017-05-14T11:15:07.999Z,21.38
2017-05-14T11:16:18.269Z,21.46
2017-05-14T11:17:28.552Z,21.49
2017-05-14T11:18:37.868Z,21.54
2017-05-14T11:19:47.822Z,21.49
2017-05-14T11:20:58.088Z,21.49
2017-05-14T11:22:08.038Z,21.61
2017-05-14T11:23:17.991Z,21.56
2017-05-14T11:24:28.253Z,21.49
2017-05-14T11:25:37.887Z,21.52
2017-05-14T11:26:48.146Z,21.54
2017-05-14T11:27:58.097Z,21.52
2017-05-14T11:29:08.358Z,21.52
2017-05-14T11:30:18.303Z,21.56
2017-05-14T11:31:28.569Z,21.46
2017-05-14T11:32:38.838Z,21.54
2017-05-14T11:33:48.783Z,21.59
2017-05-14T11:34:59.061Z,21.53
2017-05-14T11:36:09.328Z,21.49
2017-05-14T11:37:19.283Z,21.49
2017-05-14T11:38:29.247Z,21.54
2017-05-14T11:39:39.191Z,21.46
2017-05-14T11:40:49.140Z,21.56
2017-05-14T11:41:59.092Z,21.49
2017-05-14T11:43:09.374Z,21.5
2017-05-14T11:44:19.327Z,21.47
2017-05-14T11:45:29.279Z,21.38
2017-05-14T11:46:39.234Z,21.42
2017-05-14T11:47:48.881Z,21.52
2017-05-14T11:48:58.522Z,21.5
2017-05-14T11:50:07.843Z,21.53
2017-05-14T11:51:17.798Z,21.5
2017-05-14T11:52:28.083Z,21.59
2017-05-14T11:53:38.039Z,21.56
2017-05-14T11:54:47.985Z,21.53
2017-05-14T11:55:57.626Z,21.53
2017-05-14T11:57:07.584Z,21.54
2017-05-14T11:58:17.529Z,21.5
2017-05-14T11:59:27.477Z,21.49
2017-05-14T12:00:37.116Z,21.49
2017-05-14T12:01:47.071Z,21.52
2017-05-14T12:02:56.389Z,21.54
2017-05-14T12:04:06.653Z,21.5
2017-05-14T12:05:16.297Z,21.44
2017-05-14T12:06:25.937Z,21.52
2017-05-14T12:07:36.204Z,21.56
2017-05-14T12:08:46.472Z,21.52
2017-05-14T12:09:56.735Z,21.54
2017-05-14T12:11:06.999Z,21.44
2017-05-14T12:12:17.261Z,21.47
2017-05-14T12:13:27.211Z,21.54
2017-05-14T12:14:37.207Z,21.54
2017-05-14T12:15:47.483Z,21.52
2017-05-14T12:16:57.122Z,21.43
2017-05-14T12:18:07.392Z,21.43
2017-05-14T12:19:17.337Z,21.49
2017-05-14T12:20:27.292Z,21.49
2017-05-14T12:21:37.607Z,21.43
2017-05-14T12:22:47.873Z,21.46
2017-05-14T12:23:57.823Z,21.49
2017-05-14T12:25:07.768Z,21.47
2017-05-14T12:26:17.721Z,21.44
2017-05-14T12:27:27.999Z,21.37
2017-05-14T12:28:37.957Z,21.35
2017-05-14T12:29:48.226Z,21.42
2017-05-14T12:30:58.492Z,21.47
2017-05-14T12:32:08.442Z,21.47
2017-05-14T12:33:18.711Z,21.46
2017-05-14T12:34:28.978Z,21.42
2017-05-14T12:35:39.263Z,21.38
2017-05-14T12:36:49.217Z,21.47
2017-05-14T12:37:59.484Z,21.37
2017-05-14T12:39:09.439Z,21.44
2017-05-14T12:40:19.073Z,21.37
2017-05-14T12:41:28.711Z,21.38
2017-05-14T12:42:38.978Z,21.4
2017-05-14T12:43:49.240Z,21.43
2017-05-14T12:44:59.505Z,21.47
2017-05-14T12:46:09.141Z,21.46
2017-05-14T12:47:19.413Z,21.37
2017-05-14T12:48:29.358Z,21.43
2017-05-14T12:49:39.317Z,21.49
2017-05-14T12:50:49.272Z,21.46
2017-05-14T12:51:59.226Z,21.35
2017-05-14T12:53:09.169Z,21.37
2017-05-14T12:54:19.118Z,21.46
2017-05-14T12:55:29.392Z,21.35
2017-05-14T12:56:39.342Z,21.32
2017-05-14T12:57:49.611Z,21.37
2017-05-14T12:58:59.894Z,21.38
2017-05-14T13:00:09.242Z,21.37
2017-05-14T13:01:19.197Z,21.4
2017-05-14T13:02:29.190Z,21.34
2017-05-14T13:03:39.454Z,21.35
2017-05-14T13:04:49.138Z,21.34
2017-05-14T13:05:59.411Z,21.32
2017-05-14T13:07:09.363Z,21.35
2017-05-14T13:08:19.317Z,21.4
2017-05-14T13:09:29.282Z,21.37
2017-05-14T13:10:39.561Z,21.37
2017-05-14T13:11:49.204Z,21.37
2017-05-14T13:12:59.154Z,21.37
2017-05-14T13:14:09.418Z,21.32
2017-05-14T13:15:19.375Z,21.34
2017-05-14T13:16:29.635Z,21.34
2017-05-14T13:17:39.588Z,21.46
2017-05-14T13:18:49.855Z,21.53
2017-05-14T13:20:00.121Z,21.53
2017-05-14T13:21:10.081Z,21.59
2017-05-14T13:22:20.354Z,21.54
2017-05-14T13:23:30.626Z,21.43
2017-05-14T13:24:40.888Z,21.53
2017-05-14T13:25:51.204Z,21.43
2017-05-14T13:27:01.467Z,21.47
2017-05-14T13:28:11.417Z,21.38
2017-05-14T13:29:21.368Z,21.47
2017-05-14T13:30:31.325Z,21.35
2017-05-14T13:31:41.273Z,21.37
2017-05-14T13:32:51.585Z,21.46
2017-05-14T13:34:01.851Z,21.37
2017-05-14T13:35:12.133Z,21.35
2017-05-14T13:36:22.086Z,21.49
2017-05-14T13:37:32.348Z,21.46
2017-05-14T13:38:42.616Z,21.49
2017-05-14T13:39:52.577Z,21.46
2017-05-14T13:41:02.217Z,21.43
2017-05-14T13:42:12.482Z,21.49
2017-05-14T13:43:22.754Z,21.46
2017-05-14T13:44:33.020Z,21.42
2017-05-14T13:45:43.287Z,21.43
2017-05-14T13:46:53.559Z,21.35
2017-05-14T13:48:03.831Z,21.35
2017-05-14T13:49:14.097Z,21.49
2017-05-14T13:50:24.051Z,21.47
2017-05-14T13:51:34.320Z,21.53
2017-05-14T13:52:44.269Z,21.54
2017-05-14T13:53:54.542Z,21.43
2017-05-14T13:55:04.177Z,21.44
2017-05-14T13:56:13.489Z,21.43
2017-05-14T13:57:23.757Z,21.44
2017-05-14T13:58:34.022Z,21.47
2017-05-14T13:59:43.655Z,21.52
2017-05-14T14:00:53.299Z,21.52
2017-05-14T14:02:03.248Z,21.38
2017-05-14T14:03:13.505Z,21.43
2017-05-14T14:04:23.454Z,21.37
2017-05-14T14:05:33.721Z,21.46
2017-05-14T14:06:43.365Z,21.35
2017-05-14T14:07:53.632Z,21.37
2017-05-14T14:09:03.276Z,21.46
2017-05-14T14:10:13.542Z,21.32
2017-05-14T14:11:23.497Z,21.46
2017-05-14T14:12:33.449Z,21.37
2017-05-14T14:13:43.428Z,21.46
2017-05-14T14:14:53.690Z,21.4
2017-05-14T14:16:03.954Z,21.46
2017-05-14T14:17:13.597Z,21.37
2017-05-14T14:18:23.865Z,21.42
2017-05-14T14:19:34.140Z,21.59
2017-05-14T14:20:44.093Z,21.53
2017-05-14T14:21:54.363Z,21.47
2017-05-14T14:23:04.635Z,21.58
2017-05-14T14:24:14.580Z,21.53
2017-05-14T14:25:23.898Z,21.53
2017-05-14T14:26:33.850Z,21.53
2017-05-14T14:27:44.114Z,21.56
2017-05-14T14:28:54.071Z,21.58
2017-05-14T14:30:03.723Z,21.54
2017-05-14T14:31:13.986Z,21.58
2017-05-14T14:32:23.623Z,21.53
2017-05-14T14:33:33.891Z,21.59
2017-05-14T14:34:44.151Z,21.53
2017-05-14T14:35:54.142Z,21.61
2017-05-14T14:37:04.151Z,21.64
2017-05-14T14:38:14.106Z,21.59
2017-05-14T14:39:24.057Z,21.61
2017-05-14T14:40:34.317Z,21.59
2017-05-14T14:41:44.276Z,21.56
2017-05-14T14:42:54.239Z,21.56
2017-05-14T14:44:04.192Z,21.5
2017-05-14T14:45:14.148Z,21.5
2017-05-14T14:46:24.459Z,21.47
2017-05-14T14:47:34.090Z,21.54
2017-05-14T14:48:44.496Z,21.56
2017-05-14T14:49:54.799Z,21.5
2017-05-14T14:51:04.758Z,21.52
2017-05-14T14:52:14.716Z,21.49
2017-05-14T14:53:24.667Z,21.43
2017-05-14T14:54:34.930Z,21.53
2017-05-14T14:55:44.885Z,21.54
2017-05-14T14:56:54.838Z,21.53
2017-05-14T14:58:05.099Z,21.49
2017-05-14T14:59:15.367Z,21.5
2017-05-14T15:00:25.313Z,21.5
2017-05-14T15:01:35.582Z,21.58
2017-05-14T15:02:45.845Z,21.52
2017-05-14T15:03:55.795Z,21.56